sensor_id;sensor_type;location;lat;lon;timestamp;P1;durP1;ratioP1;P2;durP2;ratioP2
9420;SDS011;4749;51.398;5.466;2023-04-27T00:01:42;7.17;;;4.87;;
9420;SDS011;4749;51.398;5.466;2023-04-27T00:04:09;9.57;;;4.63;;
9420;SDS011;4749;51.398;5.466;2023-04-27T00:06:36;7.93;;;4.80;;
9420;SDS011;4749;51.398;5.466;2023-04-27T00:09:03;9.93;;;4.47;;
9420;SDS011;4749;51.398;5.466;2023-04-27T00:11:30;6.23;;;4.53;;
9420;SDS011;4749;51.398;5.466;2023-04-27T00:13:57;7.53;;;4.20;;
9420;SDS011;4749;51.398;5.466;2023-04-27T00:16:24;8.47;;;4.10;;
9420;SDS011;4749;51.398;5.466;2023-04-27T00:18:52;9.83;;;4.70;;
9420;SDS011;4749;51.398;5.466;2023-04-27T00:21:19;5.80;;;4.03;;
9420;SDS011;4749;51.398;5.466;2023-04-27T00:23:46;11.73;;;5.20;;
9420;SDS011;4749;51.398;5.466;2023-04-27T00:26:13;8.87;;;5.47;;
9420;SDS011;4749;51.398;5.466;2023-04-27T00:28:40;6.80;;;4.50;;
9420;SDS011;4749;51.398;5.466;2023-04-27T00:31:07;8.03;;;4.73;;
9420;SDS011;4749;51.398;5.466;2023-04-27T00:33:34;10.17;;;4.40;;
9420;SDS011;4749;51.398;5.466;2023-04-27T00:36:02;8.80;;;4.93;;
9420;SDS011;4749;51.398;5.466;2023-04-27T00:38:29;7.50;;;4.80;;
9420;SDS011;4749;51.398;5.466;2023-04-27T00:41:00;8.27;;;4.50;;
9420;SDS011;4749;51.398;5.466;2023-04-27T00:43:32;10.27;;;4.73;;
9420;SDS011;4749;51.398;5.466;2023-04-27T00:46:07;5.73;;;4.60;;
9420;SDS011;4749;51.398;5.466;2023-04-27T00:48:34;7.33;;;4.67;;
9420;SDS011;4749;51.398;5.466;2023-04-27T00:51:02;8.33;;;4.83;;
9420;SDS011;4749;51.398;5.466;2023-04-27T00:53:30;9.63;;;4.70;;
9420;SDS011;4749;51.398;5.466;2023-04-27T00:55:58;7.23;;;4.57;;
9420;SDS011;4749;51.398;5.466;2023-04-27T00:58:25;8.43;;;5.40;;
9420;SDS011;4749;51.398;5.466;2023-04-27T01:00:52;10.10;;;5.33;;
9420;SDS011;4749;51.398;5.466;2023-04-27T01:03:19;9.57;;;5.37;;
9420;SDS011;4749;51.398;5.466;2023-04-27T01:05:47;11.20;;;5.37;;
9420;SDS011;4749;51.398;5.466;2023-04-27T01:08:14;8.03;;;4.87;;
9420;SDS011;4749;51.398;5.466;2023-04-27T01:10:42;7.97;;;4.97;;
9420;SDS011;4749;51.398;5.466;2023-04-27T01:13:09;8.40;;;5.03;;
9420;SDS011;4749;51.398;5.466;2023-04-27T01:15:37;6.77;;;4.50;;
9420;SDS011;4749;51.398;5.466;2023-04-27T01:18:04;8.30;;;5.13;;
9420;SDS011;4749;51.398;5.466;2023-04-27T01:20:31;11.43;;;5.23;;
9420;SDS011;4749;51.398;5.466;2023-04-27T01:22:58;8.93;;;5.03;;
9420;SDS011;4749;51.398;5.466;2023-04-27T01:25:25;10.30;;;5.30;;
9420;SDS011;4749;51.398;5.466;2023-04-27T01:27:52;10.23;;;5.50;;
9420;SDS011;4749;51.398;5.466;2023-04-27T01:30:20;9.90;;;5.53;;
9420;SDS011;4749;51.398;5.466;2023-04-27T01:32:50;8.60;;;5.20;;
9420;SDS011;4749;51.398;5.466;2023-04-27T01:35:17;11.43;;;5.10;;
9420;SDS011;4749;51.398;5.466;2023-04-27T01:37:45;8.87;;;5.50;;
9420;SDS011;4749;51.398;5.466;2023-04-27T01:40:12;8.67;;;5.50;;
9420;SDS011;4749;51.398;5.466;2023-04-27T01:42:40;7.57;;;4.63;;
9420;SDS011;4749;51.398;5.466;2023-04-27T01:45:07;9.57;;;5.27;;
9420;SDS011;4749;51.398;5.466;2023-04-27T01:47:35;10.40;;;5.57;;
9420;SDS011;4749;51.398;5.466;2023-04-27T01:50:03;10.13;;;5.33;;
9420;SDS011;4749;51.398;5.466;2023-04-27T01:52:30;8.10;;;5.43;;
9420;SDS011;4749;51.398;5.466;2023-04-27T01:54:57;9.10;;;5.20;;
9420;SDS011;4749;51.398;5.466;2023-04-27T01:57:24;9.10;;;5.63;;
9420;SDS011;4749;51.398;5.466;2023-04-27T01:59:52;8.77;;;5.30;;
9420;SDS011;4749;51.398;5.466;2023-04-27T02:02:19;9.00;;;5.37;;
9420;SDS011;4749;51.398;5.466;2023-04-27T02:04:46;9.83;;;5.67;;
9420;SDS011;4749;51.398;5.466;2023-04-27T02:07:13;9.40;;;5.07;;
9420;SDS011;4749;51.398;5.466;2023-04-27T02:09:44;8.67;;;5.30;;
9420;SDS011;4749;51.398;5.466;2023-04-27T02:12:11;11.37;;;5.87;;
9420;SDS011;4749;51.398;5.466;2023-04-27T02:14:38;10.20;;;5.03;;
9420;SDS011;4749;51.398;5.466;2023-04-27T02:17:05;10.83;;;5.77;;
9420;SDS011;4749;51.398;5.466;2023-04-27T02:19:32;9.93;;;5.90;;
9420;SDS011;4749;51.398;5.466;2023-04-27T02:21:59;7.27;;;5.43;;
9420;SDS011;4749;51.398;5.466;2023-04-27T02:24:27;9.50;;;5.97;;
9420;SDS011;4749;51.398;5.466;2023-04-27T02:26:54;9.13;;;6.13;;
9420;SDS011;4749;51.398;5.466;2023-04-27T02:29:21;10.97;;;6.77;;
9420;SDS011;4749;51.398;5.466;2023-04-27T02:31:49;12.97;;;6.10;;
9420;SDS011;4749;51.398;5.466;2023-04-27T02:34:16;11.53;;;6.23;;
9420;SDS011;4749;51.398;5.466;2023-04-27T02:36:43;10.97;;;6.13;;
9420;SDS011;4749;51.398;5.466;2023-04-27T02:39:10;10.03;;;5.77;;
9420;SDS011;4749;51.398;5.466;2023-04-27T02:41:37;12.20;;;5.77;;
9420;SDS011;4749;51.398;5.466;2023-04-27T02:44:04;12.30;;;6.20;;
9420;SDS011;4749;51.398;5.466;2023-04-27T02:46:31;9.43;;;5.77;;
9420;SDS011;4749;51.398;5.466;2023-04-27T02:48:58;11.60;;;6.13;;
9420;SDS011;4749;51.398;5.466;2023-04-27T02:51:26;9.13;;;5.70;;
9420;SDS011;4749;51.398;5.466;2023-04-27T02:53:53;9.40;;;6.17;;
9420;SDS011;4749;51.398;5.466;2023-04-27T02:56:20;9.47;;;6.23;;
9420;SDS011;4749;51.398;5.466;2023-04-27T02:58:47;11.00;;;5.80;;
9420;SDS011;4749;51.398;5.466;2023-04-27T03:01:14;8.20;;;5.57;;
9420;SDS011;4749;51.398;5.466;2023-04-27T03:03:45;9.37;;;6.17;;
9420;SDS011;4749;51.398;5.466;2023-04-27T03:06:16;8.90;;;5.90;;
9420;SDS011;4749;51.398;5.466;2023-04-27T03:08:43;11.50;;;6.57;;
9420;SDS011;4749;51.398;5.466;2023-04-27T03:11:10;9.30;;;5.87;;
9420;SDS011;4749;51.398;5.466;2023-04-27T03:13:38;9.00;;;6.50;;
9420;SDS011;4749;51.398;5.466;2023-04-27T03:16:08;11.10;;;6.23;;
9420;SDS011;4749;51.398;5.466;2023-04-27T03:18:38;8.53;;;6.40;;
9420;SDS011;4749;51.398;5.466;2023-04-27T03:21:07;10.97;;;6.67;;
9420;SDS011;4749;51.398;5.466;2023-04-27T03:23:36;13.17;;;6.10;;
9420;SDS011;4749;51.398;5.466;2023-04-27T03:26:11;9.77;;;6.00;;
9420;SDS011;4749;51.398;5.466;2023-04-27T03:29:01;10.30;;;6.20;;
9420;SDS011;4749;51.398;5.466;2023-04-27T04:46:06;9.83;;;5.77;;
9420;SDS011;4749;51.398;5.466;2023-04-27T04:54:44;9.67;;;6.13;;
9420;SDS011;4749;51.398;5.466;2023-04-27T04:59:17;9.60;;;6.40;;
9420;SDS011;4749;51.398;5.466;2023-04-27T05:01:43;8.37;;;6.13;;
9420;SDS011;4749;51.398;5.466;2023-04-27T05:04:09;10.10;;;6.10;;
9420;SDS011;4749;51.398;5.466;2023-04-27T05:06:37;10.33;;;6.43;;
9420;SDS011;4749;51.398;5.466;2023-04-27T05:09:04;10.70;;;6.63;;
9420;SDS011;4749;51.398;5.466;2023-04-27T05:11:31;10.77;;;6.97;;
9420;SDS011;4749;51.398;5.466;2023-04-27T05:13:58;10.30;;;6.67;;
9420;SDS011;4749;51.398;5.466;2023-04-27T05:16:25;9.97;;;7.20;;
9420;SDS011;4749;51.398;5.466;2023-04-27T05:18:53;9.37;;;6.37;;
9420;SDS011;4749;51.398;5.466;2023-04-27T05:21:20;13.50;;;6.83;;
9420;SDS011;4749;51.398;5.466;2023-04-27T05:23:47;11.80;;;7.00;;
9420;SDS011;4749;51.398;5.466;2023-04-27T05:26:16;9.20;;;6.97;;
9420;SDS011;4749;51.398;5.466;2023-04-27T05:28:44;12.87;;;7.27;;
9420;SDS011;4749;51.398;5.466;2023-04-27T05:31:12;12.37;;;7.23;;
9420;SDS011;4749;51.398;5.466;2023-04-27T05:33:39;11.00;;;6.53;;
9420;SDS011;4749;51.398;5.466;2023-04-27T05:36:06;12.13;;;6.70;;
9420;SDS011;4749;51.398;5.466;2023-04-27T05:38:35;11.07;;;6.77;;
9420;SDS011;4749;51.398;5.466;2023-04-27T05:41:05;12.73;;;6.77;;
9420;SDS011;4749;51.398;5.466;2023-04-27T05:43:33;12.43;;;6.87;;
9420;SDS011;4749;51.398;5.466;2023-04-27T05:46:01;12.27;;;6.97;;
9420;SDS011;4749;51.398;5.466;2023-04-27T05:48:28;11.60;;;7.13;;
9420;SDS011;4749;51.398;5.466;2023-04-27T05:51:01;12.90;;;6.63;;
9420;SDS011;4749;51.398;5.466;2023-04-27T05:53:29;12.60;;;7.00;;
9420;SDS011;4749;51.398;5.466;2023-04-27T05:55:59;8.93;;;6.23;;
9420;SDS011;4749;51.398;5.466;2023-04-27T05:58:26;10.57;;;6.73;;
9420;SDS011;4749;51.398;5.466;2023-04-27T06:00:53;12.37;;;6.20;;
9420;SDS011;4749;51.398;5.466;2023-04-27T06:03:21;12.20;;;7.03;;
9420;SDS011;4749;51.398;5.466;2023-04-27T06:05:52;11.80;;;7.20;;
9420;SDS011;4749;51.398;5.466;2023-04-27T06:08:24;12.67;;;7.23;;
9420;SDS011;4749;51.398;5.466;2023-04-27T06:10:52;13.30;;;7.00;;
9420;SDS011;4749;51.398;5.466;2023-04-27T06:13:19;12.03;;;7.07;;
9420;SDS011;4749;51.398;5.466;2023-04-27T06:15:47;9.40;;;5.83;;
9420;SDS011;4749;51.398;5.466;2023-04-27T06:18:14;9.70;;;6.30;;
9420;SDS011;4749;51.398;5.466;2023-04-27T06:20:41;10.13;;;6.70;;
9420;SDS011;4749;51.398;5.466;2023-04-27T06:23:08;10.70;;;6.13;;
9420;SDS011;4749;51.398;5.466;2023-04-27T06:25:36;10.97;;;5.70;;
9420;SDS011;4749;51.398;5.466;2023-04-27T06:28:05;13.50;;;6.77;;
9420;SDS011;4749;51.398;5.466;2023-04-27T06:30:32;10.57;;;5.50;;
9420;SDS011;4749;51.398;5.466;2023-04-27T06:33:00;10.93;;;5.80;;
9420;SDS011;4749;51.398;5.466;2023-04-27T06:35:28;9.67;;;5.73;;
9420;SDS011;4749;51.398;5.466;2023-04-27T06:37:55;11.67;;;5.90;;
9420;SDS011;4749;51.398;5.466;2023-04-27T06:40:24;10.20;;;5.90;;
9420;SDS011;4749;51.398;5.466;2023-04-27T06:42:52;13.33;;;6.23;;
9420;SDS011;4749;51.398;5.466;2023-04-27T06:45:19;7.30;;;5.25;;
9420;SDS011;4749;51.398;5.466;2023-04-27T06:47:46;9.20;;;5.72;;
9420;SDS011;4749;51.398;5.466;2023-04-27T06:50:13;10.70;;;5.50;;
9420;SDS011;4749;51.398;5.466;2023-04-27T06:52:41;9.18;;;5.18;;
9420;SDS011;4749;51.398;5.466;2023-04-27T06:55:08;9.60;;;5.70;;
9420;SDS011;4749;51.398;5.466;2023-04-27T06:57:36;11.05;;;5.22;;
9420;SDS011;4749;51.398;5.466;2023-04-27T07:00:03;12.07;;;5.75;;
9420;SDS011;4749;51.398;5.466;2023-04-27T07:02:31;10.05;;;5.32;;
9420;SDS011;4749;51.398;5.466;2023-04-27T07:04:58;10.65;;;5.40;;
9420;SDS011;4749;51.398;5.466;2023-04-27T07:07:26;10.85;;;5.55;;
9420;SDS011;4749;51.398;5.466;2023-04-27T07:09:53;13.82;;;5.93;;
9420;SDS011;4749;51.398;5.466;2023-04-27T07:12:20;7.50;;;5.03;;
9420;SDS011;4749;51.398;5.466;2023-04-27T07:14:47;11.18;;;5.78;;
9420;SDS011;4749;51.398;5.466;2023-04-27T07:17:16;8.20;;;5.10;;
9420;SDS011;4749;51.398;5.466;2023-04-27T07:19:43;8.63;;;5.50;;
9420;SDS011;4749;51.398;5.466;2023-04-27T07:22:10;8.77;;;5.40;;
9420;SDS011;4749;51.398;5.466;2023-04-27T07:24:37;8.35;;;4.72;;
9420;SDS011;4749;51.398;5.466;2023-04-27T07:27:04;9.82;;;5.35;;
9420;SDS011;4749;51.398;5.466;2023-04-27T07:29:31;11.38;;;5.15;;
9420;SDS011;4749;51.398;5.466;2023-04-27T07:31:59;9.88;;;5.03;;
9420;SDS011;4749;51.398;5.466;2023-04-27T07:34:26;7.00;;;4.88;;
9420;SDS011;4749;51.398;5.466;2023-04-27T07:37:14;9.73;;;4.93;;
9420;SDS011;4749;51.398;5.466;2023-04-27T07:39:42;8.57;;;5.57;;
9420;SDS011;4749;51.398;5.466;2023-04-27T07:42:14;11.43;;;5.63;;
9420;SDS011;4749;51.398;5.466;2023-04-27T07:44:41;8.43;;;5.75;;
9420;SDS011;4749;51.398;5.466;2023-04-27T07:47:08;8.43;;;4.85;;
9420;SDS011;4749;51.398;5.466;2023-04-27T07:49:36;9.45;;;5.10;;
9420;SDS011;4749;51.398;5.466;2023-04-27T07:52:03;11.10;;;5.18;;
9420;SDS011;4749;51.398;5.466;2023-04-27T07:54:30;11.27;;;5.55;;
9420;SDS011;4749;51.398;5.466;2023-04-27T07:56:58;13.25;;;4.78;;
9420;SDS011;4749;51.398;5.466;2023-04-27T07:59:27;9.65;;;5.05;;
9420;SDS011;4749;51.398;5.466;2023-04-27T08:01:55;7.85;;;4.60;;
9420;SDS011;4749;51.398;5.466;2023-04-27T08:04:42;7.97;;;4.38;;
9420;SDS011;4749;51.398;5.466;2023-04-27T08:07:10;10.70;;;5.18;;
9420;SDS011;4749;51.398;5.466;2023-04-27T08:09:38;8.68;;;4.53;;
9420;SDS011;4749;51.398;5.466;2023-04-27T08:12:05;8.95;;;4.53;;
9420;SDS011;4749;51.398;5.466;2023-04-27T08:14:33;6.00;;;4.18;;
9420;SDS011;4749;51.398;5.466;2023-04-27T08:17:01;6.07;;;3.67;;
9420;SDS011;4749;51.398;5.466;2023-04-27T08:19:28;7.72;;;4.30;;
9420;SDS011;4749;51.398;5.466;2023-04-27T08:21:55;7.18;;;4.40;;
9420;SDS011;4749;51.398;5.466;2023-04-27T08:24:22;8.20;;;3.80;;
9420;SDS011;4749;51.398;5.466;2023-04-27T08:26:49;7.70;;;3.60;;
9420;SDS011;4749;51.398;5.466;2023-04-27T08:29:16;6.30;;;3.47;;
9420;SDS011;4749;51.398;5.466;2023-04-27T08:31:53;5.93;;;3.55;;
9420;SDS011;4749;51.398;5.466;2023-04-27T08:34:22;9.15;;;3.83;;
9420;SDS011;4749;51.398;5.466;2023-04-27T08:36:49;5.03;;;3.67;;
9420;SDS011;4749;51.398;5.466;2023-04-27T08:39:17;7.88;;;3.53;;
9420;SDS011;4749;51.398;5.466;2023-04-27T08:41:44;8.75;;;4.13;;
9420;SDS011;4749;51.398;5.466;2023-04-27T08:44:11;8.32;;;3.85;;
9420;SDS011;4749;51.398;5.466;2023-04-27T08:46:38;10.98;;;3.50;;
9420;SDS011;4749;51.398;5.466;2023-04-27T08:49:06;5.47;;;3.40;;
9420;SDS011;4749;51.398;5.466;2023-04-27T08:51:33;7.90;;;3.60;;
9420;SDS011;4749;51.398;5.466;2023-04-27T08:54:01;6.82;;;3.88;;
9420;SDS011;4749;51.398;5.466;2023-04-27T08:56:29;6.50;;;3.90;;
9420;SDS011;4749;51.398;5.466;2023-04-27T08:58:56;6.53;;;3.78;;
9420;SDS011;4749;51.398;5.466;2023-04-27T09:01:25;5.32;;;3.55;;
9420;SDS011;4749;51.398;5.466;2023-04-27T09:03:59;3.97;;;3.47;;
9420;SDS011;4749;51.398;5.466;2023-04-27T09:06:33;5.72;;;3.38;;
9420;SDS011;4749;51.398;5.466;2023-04-27T09:09:02;6.72;;;3.90;;
9420;SDS011;4749;51.398;5.466;2023-04-27T09:13:59;5.75;;;3.58;;
9420;SDS011;4749;51.398;5.466;2023-04-27T09:16:29;10.20;;;4.38;;
9420;SDS011;4749;51.398;5.466;2023-04-27T09:18:57;8.02;;;4.07;;
9420;SDS011;4749;51.398;5.466;2023-04-27T09:21:25;7.22;;;3.65;;
9420;SDS011;4749;51.398;5.466;2023-04-27T09:23:56;6.75;;;3.40;;
9420;SDS011;4749;51.398;5.466;2023-04-27T09:26:24;7.10;;;3.95;;
9420;SDS011;4749;51.398;5.466;2023-04-27T09:28:53;6.90;;;3.70;;
9420;SDS011;4749;51.398;5.466;2023-04-27T09:31:30;8.77;;;3.38;;
9420;SDS011;4749;51.398;5.466;2023-04-27T09:33:58;7.80;;;3.60;;
9420;SDS011;4749;51.398;5.466;2023-04-27T09:36:26;6.20;;;3.45;;
9420;SDS011;4749;51.398;5.466;2023-04-27T09:38:56;7.18;;;4.20;;
9420;SDS011;4749;51.398;5.466;2023-04-27T09:41:27;6.13;;;3.53;;
9420;SDS011;4749;51.398;5.466;2023-04-27T09:43:56;7.25;;;3.20;;
9420;SDS011;4749;51.398;5.466;2023-04-27T09:46:24;4.90;;;3.10;;
9420;SDS011;4749;51.398;5.466;2023-04-27T09:48:53;6.95;;;3.08;;
9420;SDS011;4749;51.398;5.466;2023-04-27T09:51:22;5.47;;;3.25;;
9420;SDS011;4749;51.398;5.466;2023-04-27T09:53:50;5.15;;;3.05;;
9420;SDS011;4749;51.398;5.466;2023-04-27T09:59:23;4.45;;;3.10;;
9420;SDS011;4749;51.398;5.466;2023-04-27T10:02:10;4.72;;;2.92;;
9420;SDS011;4749;51.398;5.466;2023-04-27T10:07:55;5.65;;;2.80;;
9420;SDS011;4749;51.398;5.466;2023-04-27T10:10:22;5.72;;;3.38;;
9420;SDS011;4749;51.398;5.466;2023-04-27T10:12:56;5.20;;;3.50;;
9420;SDS011;4749;51.398;5.466;2023-04-27T10:15:27;4.57;;;3.78;;
9420;SDS011;4749;51.398;5.466;2023-04-27T10:18:01;6.35;;;3.65;;
9420;SDS011;4749;51.398;5.466;2023-04-27T10:20:34;7.07;;;3.50;;
9420;SDS011;4749;51.398;5.466;2023-04-27T10:23:02;4.80;;;2.90;;
9420;SDS011;4749;51.398;5.466;2023-04-27T10:25:37;6.55;;;3.60;;
9420;SDS011;4749;51.398;5.466;2023-04-27T10:28:06;5.07;;;3.15;;
9420;SDS011;4749;51.398;5.466;2023-04-27T10:30:35;5.28;;;2.92;;
9420;SDS011;4749;51.398;5.466;2023-04-27T10:33:04;5.18;;;3.08;;
9420;SDS011;4749;51.398;5.466;2023-04-27T10:35:37;7.20;;;3.25;;
9420;SDS011;4749;51.398;5.466;2023-04-27T10:38:10;4.53;;;3.20;;
9420;SDS011;4749;51.398;5.466;2023-04-27T10:40:57;7.28;;;3.50;;
9420;SDS011;4749;51.398;5.466;2023-04-27T10:43:31;5.43;;;3.38;;
9420;SDS011;4749;51.398;5.466;2023-04-27T10:46:08;4.72;;;3.00;;
9420;SDS011;4749;51.398;5.466;2023-04-27T10:48:43;3.92;;;3.10;;
9420;SDS011;4749;51.398;5.466;2023-04-27T10:51:14;5.82;;;3.50;;
9420;SDS011;4749;51.398;5.466;2023-04-27T10:53:42;5.85;;;3.65;;
9420;SDS011;4749;51.398;5.466;2023-04-27T10:56:10;3.60;;;2.75;;
9420;SDS011;4749;51.398;5.466;2023-04-27T10:58:38;5.10;;;3.33;;
9420;SDS011;4749;51.398;5.466;2023-04-27T11:01:24;3.72;;;2.90;;
9420;SDS011;4749;51.398;5.466;2023-04-27T11:03:56;5.55;;;3.20;;
9420;SDS011;4749;51.398;5.466;2023-04-27T11:06:24;4.68;;;3.13;;
9420;SDS011;4749;51.398;5.466;2023-04-27T11:08:53;4.78;;;3.22;;
9420;SDS011;4749;51.398;5.466;2023-04-27T11:11:21;8.23;;;3.50;;
9420;SDS011;4749;51.398;5.466;2023-04-27T11:13:49;4.68;;;3.20;;
9420;SDS011;4749;51.398;5.466;2023-04-27T11:16:18;4.03;;;3.22;;
9420;SDS011;4749;51.398;5.466;2023-04-27T11:18:46;5.13;;;3.40;;
9420;SDS011;4749;51.398;5.466;2023-04-27T11:21:14;4.97;;;3.55;;
9420;SDS011;4749;51.398;5.466;2023-04-27T11:23:44;4.45;;;3.38;;
9420;SDS011;4749;51.398;5.466;2023-04-27T11:26:13;5.93;;;3.20;;
9420;SDS011;4749;51.398;5.466;2023-04-27T11:28:43;5.80;;;3.85;;
9420;SDS011;4749;51.398;5.466;2023-04-27T11:31:39;4.38;;;3.40;;
9420;SDS011;4749;51.398;5.466;2023-04-27T11:34:15;6.57;;;3.60;;
9420;SDS011;4749;51.398;5.466;2023-04-27T11:36:55;5.00;;;3.35;;
9420;SDS011;4749;51.398;5.466;2023-04-27T11:39:43;7.85;;;3.58;;
9420;SDS011;4749;51.398;5.466;2023-04-27T11:45:00;5.72;;;3.03;;
9420;SDS011;4749;51.398;5.466;2023-04-27T11:47:34;4.15;;;3.35;;
9420;SDS011;4749;51.398;5.466;2023-04-27T11:50:03;5.22;;;3.70;;
9420;SDS011;4749;51.398;5.466;2023-04-27T11:52:33;4.43;;;3.67;;
9420;SDS011;4749;51.398;5.466;2023-04-27T11:55:02;6.07;;;3.35;;
9420;SDS011;4749;51.398;5.466;2023-04-27T11:57:34;5.88;;;3.60;;
9420;SDS011;4749;51.398;5.466;2023-04-27T12:00:03;4.82;;;3.63;;
9420;SDS011;4749;51.398;5.466;2023-04-27T12:02:36;6.78;;;3.90;;
9420;SDS011;4749;51.398;5.466;2023-04-27T12:05:04;5.43;;;3.47;;
9420;SDS011;4749;51.398;5.466;2023-04-27T12:07:33;4.72;;;3.42;;
9420;SDS011;4749;51.398;5.466;2023-04-27T12:10:00;5.10;;;3.40;;
9420;SDS011;4749;51.398;5.466;2023-04-27T12:12:27;5.03;;;3.00;;
9420;SDS011;4749;51.398;5.466;2023-04-27T12:14:54;3.70;;;2.88;;
9420;SDS011;4749;51.398;5.466;2023-04-27T12:17:22;5.60;;;3.17;;
9420;SDS011;4749;51.398;5.466;2023-04-27T12:19:49;5.72;;;3.20;;
9420;SDS011;4749;51.398;5.466;2023-04-27T12:22:16;4.70;;;2.95;;
9420;SDS011;4749;51.398;5.466;2023-04-27T12:24:43;5.60;;;2.85;;
9420;SDS011;4749;51.398;5.466;2023-04-27T12:27:11;4.65;;;3.00;;
9420;SDS011;4749;51.398;5.466;2023-04-27T12:29:38;4.60;;;2.92;;
9420;SDS011;4749;51.398;5.466;2023-04-27T12:32:05;6.38;;;3.10;;
9420;SDS011;4749;51.398;5.466;2023-04-27T12:34:33;6.43;;;2.97;;
9420;SDS011;4749;51.398;5.466;2023-04-27T12:37:00;3.75;;;2.83;;
9420;SDS011;4749;51.398;5.466;2023-04-27T12:39:27;5.35;;;3.10;;
9420;SDS011;4749;51.398;5.466;2023-04-27T12:41:54;3.83;;;3.13;;
9420;SDS011;4749;51.398;5.466;2023-04-27T12:44:23;4.82;;;3.05;;
9420;SDS011;4749;51.398;5.466;2023-04-27T12:46:50;3.35;;;2.72;;
9420;SDS011;4749;51.398;5.466;2023-04-27T12:49:17;5.53;;;3.55;;
9420;SDS011;4749;51.398;5.466;2023-04-27T12:51:45;4.78;;;3.45;;
9420;SDS011;4749;51.398;5.466;2023-04-27T12:54:13;6.32;;;3.42;;
9420;SDS011;4749;51.398;5.466;2023-04-27T12:56:40;4.57;;;2.75;;
9420;SDS011;4749;51.398;5.466;2023-04-27T12:59:07;7.05;;;3.20;;
9420;SDS011;4749;51.398;5.466;2023-04-27T13:01:35;5.45;;;3.17;;
9420;SDS011;4749;51.398;5.466;2023-04-27T13:04:03;7.18;;;3.53;;
9420;SDS011;4749;51.398;5.466;2023-04-27T13:06:32;6.30;;;3.47;;
9420;SDS011;4749;51.398;5.466;2023-04-27T13:08:59;4.35;;;3.63;;
9420;SDS011;4749;51.398;5.466;2023-04-27T13:11:27;7.85;;;4.60;;
9420;SDS011;4749;51.398;5.466;2023-04-27T13:13:55;7.93;;;4.57;;
9420;SDS011;4749;51.398;5.466;2023-04-27T13:16:22;7.05;;;4.05;;
9420;SDS011;4749;51.398;5.466;2023-04-27T13:18:51;5.70;;;3.97;;
9420;SDS011;4749;51.398;5.466;2023-04-27T13:21:20;5.03;;;3.78;;
9420;SDS011;4749;51.398;5.466;2023-04-27T13:23:48;5.50;;;3.20;;
9420;SDS011;4749;51.398;5.466;2023-04-27T13:26:16;6.55;;;3.45;;
9420;SDS011;4749;51.398;5.466;2023-04-27T13:28:44;4.38;;;3.17;;
9420;SDS011;4749;51.398;5.466;2023-04-27T13:31:11;5.53;;;3.85;;
9420;SDS011;4749;51.398;5.466;2023-04-27T13:33:42;6.68;;;3.80;;
9420;SDS011;4749;51.398;5.466;2023-04-27T13:36:09;5.50;;;3.20;;
9420;SDS011;4749;51.398;5.466;2023-04-27T13:38:38;5.13;;;3.72;;
9420;SDS011;4749;51.398;5.466;2023-04-27T13:41:05;8.82;;;4.80;;
9420;SDS011;4749;51.398;5.466;2023-04-27T13:43:34;6.68;;;4.00;;
9420;SDS011;4749;51.398;5.466;2023-04-27T13:46:01;6.25;;;3.88;;
9420;SDS011;4749;51.398;5.466;2023-04-27T13:48:28;5.75;;;3.42;;
9420;SDS011;4749;51.398;5.466;2023-04-27T13:50:56;6.03;;;3.40;;
9420;SDS011;4749;51.398;5.466;2023-04-27T13:53:24;4.60;;;3.15;;
9420;SDS011;4749;51.398;5.466;2023-04-27T13:55:52;5.18;;;3.80;;
9420;SDS011;4749;51.398;5.466;2023-04-27T13:58:21;5.68;;;3.70;;
9420;SDS011;4749;51.398;5.466;2023-04-27T14:00:51;6.60;;;3.55;;
9420;SDS011;4749;51.398;5.466;2023-04-27T14:03:19;4.20;;;3.55;;
9420;SDS011;4749;51.398;5.466;2023-04-27T14:05:48;4.90;;;3.50;;
9420;SDS011;4749;51.398;5.466;2023-04-27T14:08:16;5.80;;;3.03;;
9420;SDS011;4749;51.398;5.466;2023-04-27T14:10:44;5.05;;;3.92;;
9420;SDS011;4749;51.398;5.466;2023-04-27T14:13:11;5.95;;;3.20;;
9420;SDS011;4749;51.398;5.466;2023-04-27T14:15:39;6.15;;;3.40;;
9420;SDS011;4749;51.398;5.466;2023-04-27T14:18:07;5.07;;;3.15;;
9420;SDS011;4749;51.398;5.466;2023-04-27T14:20:35;7.85;;;3.13;;
9420;SDS011;4749;51.398;5.466;2023-04-27T14:23:04;4.07;;;3.58;;
9420;SDS011;4749;51.398;5.466;2023-04-27T14:25:32;6.82;;;3.72;;
9420;SDS011;4749;51.398;5.466;2023-04-27T14:28:00;4.95;;;3.10;;
9420;SDS011;4749;51.398;5.466;2023-04-27T14:30:31;4.25;;;3.15;;
9420;SDS011;4749;51.398;5.466;2023-04-27T14:32:59;6.18;;;3.30;;
9420;SDS011;4749;51.398;5.466;2023-04-27T14:35:26;6.22;;;3.75;;
9420;SDS011;4749;51.398;5.466;2023-04-27T14:37:54;4.15;;;3.75;;
9420;SDS011;4749;51.398;5.466;2023-04-27T14:40:22;7.60;;;3.72;;
9420;SDS011;4749;51.398;5.466;2023-04-27T14:42:49;7.25;;;3.67;;
9420;SDS011;4749;51.398;5.466;2023-04-27T14:45:16;6.30;;;3.75;;
9420;SDS011;4749;51.398;5.466;2023-04-27T14:47:44;5.72;;;3.95;;
9420;SDS011;4749;51.398;5.466;2023-04-27T14:50:11;4.38;;;3.28;;
9420;SDS011;4749;51.398;5.466;2023-04-27T14:52:38;7.93;;;3.78;;
9420;SDS011;4749;51.398;5.466;2023-04-27T14:55:05;4.82;;;3.38;;
9420;SDS011;4749;51.398;5.466;2023-04-27T14:57:34;5.65;;;3.80;;
9420;SDS011;4749;51.398;5.466;2023-04-27T15:00:02;5.38;;;3.55;;
9420;SDS011;4749;51.398;5.466;2023-04-27T15:02:35;3.88;;;3.17;;
9420;SDS011;4749;51.398;5.466;2023-04-27T15:05:03;4.53;;;3.22;;
9420;SDS011;4749;51.398;5.466;2023-04-27T15:07:32;6.35;;;3.70;;
9420;SDS011;4749;51.398;5.466;2023-04-27T15:09:59;6.97;;;4.55;;
9420;SDS011;4749;51.398;5.466;2023-04-27T15:12:26;8.95;;;4.30;;
9420;SDS011;4749;51.398;5.466;2023-04-27T15:14:53;7.20;;;4.20;;
9420;SDS011;4749;51.398;5.466;2023-04-27T15:17:20;7.45;;;4.15;;
9420;SDS011;4749;51.398;5.466;2023-04-27T15:19:47;5.88;;;3.55;;
9420;SDS011;4749;51.398;5.466;2023-04-27T15:22:14;5.88;;;3.78;;
9420;SDS011;4749;51.398;5.466;2023-04-27T15:24:41;5.38;;;4.30;;
9420;SDS011;4749;51.398;5.466;2023-04-27T15:27:08;6.80;;;4.03;;
9420;SDS011;4749;51.398;5.466;2023-04-27T15:29:35;7.90;;;4.10;;
9420;SDS011;4749;51.398;5.466;2023-04-27T15:32:03;4.90;;;3.63;;
9420;SDS011;4749;51.398;5.466;2023-04-27T15:34:30;5.32;;;3.92;;
9420;SDS011;4749;51.398;5.466;2023-04-27T15:36:57;6.25;;;3.97;;
9420;SDS011;4749;51.398;5.466;2023-04-27T15:39:26;8.43;;;3.83;;
9420;SDS011;4749;51.398;5.466;2023-04-27T15:41:53;6.07;;;4.10;;
9420;SDS011;4749;51.398;5.466;2023-04-27T15:44:21;5.20;;;3.75;;
9420;SDS011;4749;51.398;5.466;2023-04-27T15:46:48;7.97;;;4.07;;
9420;SDS011;4749;51.398;5.466;2023-04-27T15:49:15;6.40;;;4.15;;
9420;SDS011;4749;51.398;5.466;2023-04-27T15:51:42;6.25;;;4.35;;
9420;SDS011;4749;51.398;5.466;2023-04-27T15:54:10;5.30;;;4.18;;
9420;SDS011;4749;51.398;5.466;2023-04-27T15:56:37;5.90;;;3.88;;
9420;SDS011;4749;51.398;5.466;2023-04-27T15:59:04;7.88;;;4.28;;
9420;SDS011;4749;51.398;5.466;2023-04-27T16:01:32;9.45;;;3.90;;
9420;SDS011;4749;51.398;5.466;2023-04-27T16:03:59;6.57;;;3.58;;
9420;SDS011;4749;51.398;5.466;2023-04-27T16:06:30;8.80;;;4.50;;
9420;SDS011;4749;51.398;5.466;2023-04-27T16:09:02;7.82;;;4.32;;
9420;SDS011;4749;51.398;5.466;2023-04-27T16:11:30;5.03;;;3.88;;
9420;SDS011;4749;51.398;5.466;2023-04-27T16:13:57;7.63;;;4.38;;
9420;SDS011;4749;51.398;5.466;2023-04-27T16:16:24;8.10;;;4.13;;
9420;SDS011;4749;51.398;5.466;2023-04-27T16:18:52;5.85;;;4.40;;
9420;SDS011;4749;51.398;5.466;2023-04-27T16:21:19;7.63;;;3.90;;
9420;SDS011;4749;51.398;5.466;2023-04-27T16:23:48;5.38;;;4.43;;
9420;SDS011;4749;51.398;5.466;2023-04-27T16:26:19;5.20;;;3.80;;
9420;SDS011;4749;51.398;5.466;2023-04-27T16:28:46;5.63;;;4.28;;
9420;SDS011;4749;51.398;5.466;2023-04-27T16:31:13;7.82;;;4.57;;
9420;SDS011;4749;51.398;5.466;2023-04-27T16:33:41;5.88;;;4.10;;
9420;SDS011;4749;51.398;5.466;2023-04-27T16:36:09;5.78;;;4.43;;
9420;SDS011;4749;51.398;5.466;2023-04-27T16:38:37;6.47;;;4.13;;
9420;SDS011;4749;51.398;5.466;2023-04-27T16:41:04;6.93;;;4.40;;
9420;SDS011;4749;51.398;5.466;2023-04-27T16:43:31;7.30;;;4.20;;
9420;SDS011;4749;51.398;5.466;2023-04-27T16:45:59;5.53;;;4.22;;
9420;SDS011;4749;51.398;5.466;2023-04-27T16:48:26;6.38;;;4.47;;
9420;SDS011;4749;51.398;5.466;2023-04-27T16:50:53;7.22;;;4.50;;
9420;SDS011;4749;51.398;5.466;2023-04-27T16:53:21;6.25;;;4.60;;
9420;SDS011;4749;51.398;5.466;2023-04-27T16:55:48;9.38;;;4.70;;